sensor_id;sensor_type;location;lat;lon;timestamp;pressure;altitude;pressure_sealevel;temperature;humidity
10881;BME280;5493;48.884;8.338;2023-07-20T00:02:23;100090.09;;;22.42;98.43
10881;BME280;5493;48.884;8.338;2023-07-20T00:04:50;100091.59;;;22.48;98.12
10881;BME280;5493;48.884;8.338;2023-07-20T00:07:16;100086.03;;;22.53;97.52
10881;BME280;5493;48.884;8.338;2023-07-20T00:09:43;100092.09;;;22.37;97.69
10881;BME280;5493;48.884;8.338;2023-07-20T00:12:09;100091.91;;;22.47;97.23
10881;BME280;5493;48.884;8.338;2023-07-20T00:14:36;100093.00;;;22.32;99.17
10881;BME280;5493;48.884;8.338;2023-07-20T00:17:04;100091.88;;;22.33;98.53
10881;BME280;5493;48.884;8.338;2023-07-20T00:19:31;100093.38;;;22.26;100.00
10881;BME280;5493;48.884;8.338;2023-07-20T00:21:57;100091.50;;;22.07;100.00
10881;BME280;5493;48.884;8.338;2023-07-20T00:24:24;100095.06;;;22.08;100.00
10881;BME280;5493;48.884;8.338;2023-07-20T00:26:51;100091.63;;;22.16;100.00
10881;BME280;5493;48.884;8.338;2023-07-20T00:29:17;100098.34;;;22.10;100.00
10881;BME280;5493;48.884;8.338;2023-07-20T00:31:44;100095.75;;;22.00;100.00
10881;BME280;5493;48.884;8.338;2023-07-20T00:34:12;100090.13;;;21.91;100.00
10881;BME280;5493;48.884;8.338;2023-07-20T00:36:38;100083.84;;;21.86;100.00
10881;BME280;5493;48.884;8.338;2023-07-20T00:39:05;100088.19;;;21.73;100.00
10881;BME280;5493;48.884;8.338;2023-07-20T00:41:32;100088.56;;;21.67;100.00
10881;BME280;5493;48.884;8.338;2023-07-20T00:43:58;100095.59;;;21.54;100.00
10881;BME280;5493;48.884;8.338;2023-07-20T00:46:25;100093.16;;;21.52;100.00
10881;BME280;5493;48.884;8.338;2023-07-20T00:48:52;100090.72;;;21.51;100.00
10881;BME280;5493;48.884;8.338;2023-07-20T00:51:21;100089.28;;;21.53;100.00
10881;BME280;5493;48.884;8.338;2023-07-20T00:53:47;100083.69;;;21.45;100.00
10881;BME280;5493;48.884;8.338;2023-07-20T00:56:14;100086.25;;;21.36;100.00
10881;BME280;5493;48.884;8.338;2023-07-20T00:58:41;100082.75;;;21.31;100.00
10881;BME280;5493;48.884;8.338;2023-07-20T01:01:08;100082.31;;;21.24;100.00
10881;BME280;5493;48.884;8.338;2023-07-20T01:03:34;100081.78;;;21.22;100.00
10881;BME280;5493;48.884;8.338;2023-07-20T01:06:08;100093.28;;;21.00;100.00
10881;BME280;5493;48.884;8.338;2023-07-20T01:08:42;100088.53;;;21.05;100.00
10881;BME280;5493;48.884;8.338;2023-07-20T01:11:13;100096.16;;;20.90;100.00
10881;BME280;5493;48.884;8.338;2023-07-20T01:13:43;100092.47;;;20.99;100.00
10881;BME280;5493;48.884;8.338;2023-07-20T01:16:10;100085.09;;;20.76;100.00
10881;BME280;5493;48.884;8.338;2023-07-20T01:18:36;100083.44;;;20.75;100.00
10881;BME280;5493;48.884;8.338;2023-07-20T01:21:07;100082.28;;;20.57;100.00
10881;BME280;5493;48.884;8.338;2023-07-20T01:23:58;100082.03;;;20.54;100.00
10881;BME280;5493;48.884;8.338;2023-07-20T01:29:38;100084.09;;;20.38;100.00
10881;BME280;5493;48.884;8.338;2023-07-20T01:32:11;100081.59;;;20.42;100.00
10881;BME280;5493;48.884;8.338;2023-07-20T01:34:39;100080.53;;;20.38;100.00
10881;BME280;5493;48.884;8.338;2023-07-20T01:37:08;100080.13;;;20.54;100.00
10881;BME280;5493;48.884;8.338;2023-07-20T01:39:36;100083.75;;;20.45;100.00
10881;BME280;5493;48.884;8.338;2023-07-20T01:42:04;100083.03;;;20.63;100.00
10881;BME280;5493;48.884;8.338;2023-07-20T01:44:30;100086.38;;;20.55;100.00
10881;BME280;5493;48.884;8.338;2023-07-20T01:46:57;100087.75;;;20.57;100.00
10881;BME280;5493;48.884;8.338;2023-07-20T01:49:25;100079.94;;;20.46;100.00
10881;BME280;5493;48.884;8.338;2023-07-20T01:51:51;100085.50;;;20.36;100.00
10881;BME280;5493;48.884;8.338;2023-07-20T01:54:18;100075.28;;;20.46;100.00
10881;BME280;5493;48.884;8.338;2023-07-20T01:56:45;100077.16;;;20.51;100.00
10881;BME280;5493;48.884;8.338;2023-07-20T01:59:11;100078.97;;;20.32;100.00
10881;BME280;5493;48.884;8.338;2023-07-20T02:01:38;100071.00;;;20.35;100.00
10881;BME280;5493;48.884;8.338;2023-07-20T02:04:04;100073.34;;;20.47;100.00
10881;BME280;5493;48.884;8.338;2023-07-20T02:06:32;100078.81;;;20.47;100.00
10881;BME280;5493;48.884;8.338;2023-07-20T02:08:59;100075.94;;;20.33;100.00
10881;BME280;5493;48.884;8.338;2023-07-20T02:11:25;100080.09;;;20.26;100.00
10881;BME280;5493;48.884;8.338;2023-07-20T02:13:52;100078.97;;;20.27;100.00
10881;BME280;5493;48.884;8.338;2023-07-20T02:16:18;100077.78;;;20.09;100.00
10881;BME280;5493;48.884;8.338;2023-07-20T02:18:45;100074.06;;;19.95;100.00
10881;BME280;5493;48.884;8.338;2023-07-20T02:21:11;100079.81;;;19.93;100.00
10881;BME280;5493;48.884;8.338;2023-07-20T02:23:39;100076.78;;;20.00;100.00
10881;BME280;5493;48.884;8.338;2023-07-20T02:26:06;100071.41;;;19.85;100.00
10881;BME280;5493;48.884;8.338;2023-07-20T02:28:32;100081.53;;;19.84;100.00
10881;BME280;5493;48.884;8.338;2023-07-20T02:30:59;100068.44;;;19.81;100.00
10881;BME280;5493;48.884;8.338;2023-07-20T02:33:26;100079.31;;;19.86;100.00
10881;BME280;5493;48.884;8.338;2023-07-20T02:35:52;100083.19;;;19.85;100.00
10881;BME280;5493;48.884;8.338;2023-07-20T02:38:19;100074.03;;;19.61;100.00
10881;BME280;5493;48.884;8.338;2023-07-20T02:40:47;100071.81;;;19.68;100.00
10881;BME280;5493;48.884;8.338;2023-07-20T02:43:13;100081.81;;;19.83;100.00
10881;BME280;5493;48.884;8.338;2023-07-20T02:45:40;100077.75;;;19.75;100.00
10881;BME280;5493;48.884;8.338;2023-07-20T02:48:08;100073.91;;;19.81;100.00
10881;BME280;5493;48.884;8.338;2023-07-20T02:50:34;100070.97;;;19.73;100.00
10881;BME280;5493;48.884;8.338;2023-07-20T02:53:02;100071.75;;;19.78;100.00
10881;BME280;5493;48.884;8.338;2023-07-20T02:55:28;100071.94;;;19.87;100.00
10881;BME280;5493;48.884;8.338;2023-07-20T02:57:56;100075.00;;;19.80;100.00
10881;BME280;5493;48.884;8.338;2023-07-20T03:00:23;100081.91;;;19.73;100.00
10881;BME280;5493;48.884;8.338;2023-07-20T03:02:50;100079.72;;;19.75;100.00
10881;BME280;5493;48.884;8.338;2023-07-20T03:05:21;100089.50;;;19.81;100.00
10881;BME280;5493;48.884;8.338;2023-07-20T03:07:47;100088.94;;;19.45;100.00
10881;BME280;5493;48.884;8.338;2023-07-20T03:10:14;100086.50;;;19.33;100.00
10881;BME280;5493;48.884;8.338;2023-07-20T03:12:40;100087.00;;;19.40;100.00
10881;BME280;5493;48.884;8.338;2023-07-20T03:15:09;100085.34;;;19.39;100.00
10881;BME280;5493;48.884;8.338;2023-07-20T03:17:36;100089.75;;;19.40;100.00
10881;BME280;5493;48.884;8.338;2023-07-20T03:20:03;100088.34;;;19.48;100.00
10881;BME280;5493;48.884;8.338;2023-07-20T03:22:34;100084.56;;;19.39;100.00
10881;BME280;5493;48.884;8.338;2023-07-20T03:25:00;100083.22;;;19.41;100.00
10881;BME280;5493;48.884;8.338;2023-07-20T03:27:27;100090.88;;;19.34;100.00
10881;BME280;5493;48.884;8.338;2023-07-20T03:29:54;100090.56;;;19.36;100.00
10881;BME280;5493;48.884;8.338;2023-07-20T03:32:22;100088.97;;;19.35;100.00
10881;BME280;5493;48.884;8.338;2023-07-20T03:34:48;100091.41;;;19.36;100.00
10881;BME280;5493;48.884;8.338;2023-07-20T03:37:15;100088.41;;;19.38;100.00
10881;BME280;5493;48.884;8.338;2023-07-20T03:39:41;100098.06;;;19.20;100.00
10881;BME280;5493;48.884;8.338;2023-07-20T03:42:08;100095.06;;;19.16;100.00
10881;BME280;5493;48.884;8.338;2023-07-20T03:44:35;100101.69;;;19.05;100.00
10881;BME280;5493;48.884;8.338;2023-07-20T03:47:01;100102.81;;;18.94;100.00
10881;BME280;5493;48.884;8.338;2023-07-20T03:49:30;100091.06;;;18.99;100.00
10881;BME280;5493;48.884;8.338;2023-07-20T03:51:56;100103.31;;;19.01;100.00
10881;BME280;5493;48.884;8.338;2023-07-20T03:54:23;100103.03;;;19.03;100.00
10881;BME280;5493;48.884;8.338;2023-07-20T03:56:49;100097.88;;;19.01;100.00
10881;BME280;5493;48.884;8.338;2023-07-20T03:59:16;100107.19;;;18.95;100.00
10881;BME280;5493;48.884;8.338;2023-07-20T04:01:42;100105.03;;;18.87;100.00
10881;BME280;5493;48.884;8.338;2023-07-20T04:04:09;100103.13;;;18.88;100.00
10881;BME280;5493;48.884;8.338;2023-07-20T04:06:37;100105.25;;;18.96;100.00
10881;BME280;5493;48.884;8.338;2023-07-20T04:09:04;100111.56;;;18.81;100.00
10881;BME280;5493;48.884;8.338;2023-07-20T04:11:31;100114.59;;;18.75;100.00
10881;BME280;5493;48.884;8.338;2023-07-20T04:13:57;100107.50;;;18.84;100.00
10881;BME280;5493;48.884;8.338;2023-07-20T04:16:24;100105.88;;;18.67;100.00
10881;BME280;5493;48.884;8.338;2023-07-20T04:18:51;100107.78;;;18.72;100.00
10881;BME280;5493;48.884;8.338;2023-07-20T04:21:18;100107.50;;;18.84;100.00
10881;BME280;5493;48.884;8.338;2023-07-20T04:23:46;100110.56;;;18.57;100.00
10881;BME280;5493;48.884;8.338;2023-07-20T04:26:12;100107.84;;;18.52;100.00
10881;BME280;5493;48.884;8.338;2023-07-20T04:28:39;100106.44;;;18.59;100.00
10881;BME280;5493;48.884;8.338;2023-07-20T04:31:11;100108.38;;;18.54;100.00
10881;BME280;5493;48.884;8.338;2023-07-20T04:33:37;100107.25;;;18.60;100.00
10881;BME280;5493;48.884;8.338;2023-07-20T04:36:04;100115.16;;;18.66;100.00
10881;BME280;5493;48.884;8.338;2023-07-20T04:38:31;100111.56;;;18.81;100.00
10881;BME280;5493;48.884;8.338;2023-07-20T04:40:59;100113.94;;;19.08;100.00
10881;BME280;5493;48.884;8.338;2023-07-20T04:43:25;100112.56;;;19.10;100.00
10881;BME280;5493;48.884;8.338;2023-07-20T04:45:52;100117.44;;;19.24;100.00
10881;BME280;5493;48.884;8.338;2023-07-20T04:48:19;100117.63;;;19.47;100.00
10881;BME280;5493;48.884;8.338;2023-07-20T04:50:45;100113.00;;;19.43;100.00
10881;BME280;5493;48.884;8.338;2023-07-20T04:53:12;100114.53;;;19.64;100.00
10881;BME280;5493;48.884;8.338;2023-07-20T04:55:39;100114.50;;;20.03;100.00
10881;BME280;5493;48.884;8.338;2023-07-20T04:58:07;100110.00;;;20.17;100.00
10881;BME280;5493;48.884;8.338;2023-07-20T05:00:34;100114.75;;;20.06;100.00
10881;BME280;5493;48.884;8.338;2023-07-20T05:03:01;100104.56;;;20.46;100.00
10881;BME280;5493;48.884;8.338;2023-07-20T05:05:30;100111.81;;;20.84;100.00
10881;BME280;5493;48.884;8.338;2023-07-20T05:07:57;100108.91;;;20.99;100.00
10881;BME280;5493;48.884;8.338;2023-07-20T05:10:23;100109.53;;;21.39;100.00
10881;BME280;5493;48.884;8.338;2023-07-20T05:12:50;100105.25;;;21.70;100.00
10881;BME280;5493;48.884;8.338;2023-07-20T05:15:17;100108.06;;;21.84;100.00
10881;BME280;5493;48.884;8.338;2023-07-20T05:17:44;100108.34;;;22.20;100.00
10881;BME280;5493;48.884;8.338;2023-07-20T05:20:12;100104.25;;;22.49;100.00
10881;BME280;5493;48.884;8.338;2023-07-20T05:22:38;100107.66;;;22.74;100.00
10881;BME280;5493;48.884;8.338;2023-07-20T05:25:07;100101.44;;;22.95;100.00
10881;BME280;5493;48.884;8.338;2023-07-20T05:27:35;100103.78;;;23.02;100.00
10881;BME280;5493;48.884;8.338;2023-07-20T05:30:02;100109.66;;;23.50;100.00
10881;BME280;5493;48.884;8.338;2023-07-20T05:32:30;100117.84;;;23.41;100.00
10881;BME280;5493;48.884;8.338;2023-07-20T05:34:57;100109.78;;;23.18;100.00
10881;BME280;5493;48.884;8.338;2023-07-20T05:37:23;100114.31;;;22.54;100.00
10881;BME280;5493;48.884;8.338;2023-07-20T05:39:50;100110.50;;;22.36;100.00
10881;BME280;5493;48.884;8.338;2023-07-20T05:44:43;100115.69;;;22.70;100.00
10881;BME280;5493;48.884;8.338;2023-07-20T05:47:10;100118.00;;;22.63;100.00
10881;BME280;5493;48.884;8.338;2023-07-20T05:49:38;100116.88;;;22.64;100.00
10881;BME280;5493;48.884;8.338;2023-07-20T05:52:05;100117.31;;;23.12;100.00
10881;BME280;5493;48.884;8.338;2023-07-20T05:54:32;100119.72;;;23.41;100.00
10881;BME280;5493;48.884;8.338;2023-07-20T05:56:58;100115.97;;;23.37;100.00
10881;BME280;5493;48.884;8.338;2023-07-20T05:59:27;100117.34;;;23.75;100.00
10881;BME280;5493;48.884;8.338;2023-07-20T06:01:54;100115.00;;;24.05;100.00
10881;BME280;5493;48.884;8.338;2023-07-20T06:04:21;100114.50;;;24.25;100.00
10881;BME280;5493;48.884;8.338;2023-07-20T06:06:49;100116.75;;;24.00;100.00
10881;BME280;5493;48.884;8.338;2023-07-20T06:09:15;100117.19;;;24.38;100.00
10881;BME280;5493;48.884;8.338;2023-07-20T06:11:42;100123.22;;;24.18;100.00
10881;BME280;5493;48.884;8.338;2023-07-20T06:14:08;100116.47;;;23.88;100.00
10881;BME280;5493;48.884;8.338;2023-07-20T06:16:35;100122.50;;;23.55;100.00
10881;BME280;5493;48.884;8.338;2023-07-20T06:19:01;100124.78;;;23.25;100.00
10881;BME280;5493;48.884;8.338;2023-07-20T06:21:28;100121.41;;;23.28;100.00
10881;BME280;5493;48.884;8.338;2023-07-20T06:23:56;100123.94;;;22.97;100.00
10881;BME280;5493;48.884;8.338;2023-07-20T06:26:24;100128.34;;;22.85;100.00
10881;BME280;5493;48.884;8.338;2023-07-20T06:28:50;100115.03;;;22.60;100.00
10881;BME280;5493;48.884;8.338;2023-07-20T06:31:17;100120.66;;;22.36;100.00
10881;BME280;5493;48.884;8.338;2023-07-20T06:33:43;100123.13;;;22.37;100.00
10881;BME280;5493;48.884;8.338;2023-07-20T06:36:10;100126.94;;;22.23;100.00
10881;BME280;5493;48.884;8.338;2023-07-20T06:38:37;100125.69;;;22.15;100.00
10881;BME280;5493;48.884;8.338;2023-07-20T06:41:05;100123.28;;;21.95;100.00
10881;BME280;5493;48.884;8.338;2023-07-20T06:43:31;100130.19;;;22.25;100.00
10881;BME280;5493;48.884;8.338;2023-07-20T06:45:58;100132.59;;;22.31;100.00
10881;BME280;5493;48.884;8.338;2023-07-20T06:48:24;100124.75;;;22.06;100.00
10881;BME280;5493;48.884;8.338;2023-07-20T06:50:51;100128.00;;;22.27;100.00
10881;BME280;5493;48.884;8.338;2023-07-20T06:53:19;100125.03;;;21.86;100.00
10881;BME280;5493;48.884;8.338;2023-07-20T06:55:45;100128.25;;;21.93;100.00
10881;BME280;5493;48.884;8.338;2023-07-20T06:58:13;100132.94;;;21.74;100.00
10881;BME280;5493;48.884;8.338;2023-07-20T07:00:40;100132.66;;;21.89;100.00
10881;BME280;5493;48.884;8.338;2023-07-20T07:03:06;100137.94;;;22.23;100.00
10881;BME280;5493;48.884;8.338;2023-07-20T07:05:36;100127.78;;;22.04;100.00
10881;BME280;5493;48.884;8.338;2023-07-20T07:08:04;100127.34;;;22.16;100.00
10881;BME280;5493;48.884;8.338;2023-07-20T07:10:31;100125.13;;;21.99;100.00
10881;BME280;5493;48.884;8.338;2023-07-20T07:12:57;100126.25;;;21.80;100.00
10881;BME280;5493;48.884;8.338;2023-07-20T07:15:26;100130.25;;;21.69;100.00
10881;BME280;5493;48.884;8.338;2023-07-20T07:17:53;100133.19;;;22.28;100.00
10881;BME280;5493;48.884;8.338;2023-07-20T07:20:21;100135.41;;;21.89;100.00
10881;BME280;5493;48.884;8.338;2023-07-20T07:22:47;100135.19;;;22.23;100.00
10881;BME280;5493;48.884;8.338;2023-07-20T07:25:14;100127.41;;;22.11;100.00
10881;BME280;5493;48.884;8.338;2023-07-20T07:27:40;100126.13;;;22.22;100.00
10881;BME280;5493;48.884;8.338;2023-07-20T07:30:07;100135.22;;;22.04;100.00
10881;BME280;5493;48.884;8.338;2023-07-20T07:32:35;100132.19;;;22.70;100.00
10881;BME280;5493;48.884;8.338;2023-07-20T07:35:02;100123.97;;;22.51;100.00
10881;BME280;5493;48.884;8.338;2023-07-20T07:37:29;100128.47;;;22.61;100.00
10881;BME280;5493;48.884;8.338;2023-07-20T07:39:56;100136.19;;;23.19;100.00
10881;BME280;5493;48.884;8.338;2023-07-20T07:42:22;100136.47;;;23.94;100.00
10881;BME280;5493;48.884;8.338;2023-07-20T07:44:49;100139.97;;;23.86;100.00
10881;BME280;5493;48.884;8.338;2023-07-20T07:47:15;100141.22;;;24.02;100.00
10881;BME280;5493;48.884;8.338;2023-07-20T07:49:43;100141.66;;;23.95;100.00
10881;BME280;5493;48.884;8.338;2023-07-20T07:52:10;100134.69;;;24.34;100.00
10881;BME280;5493;48.884;8.338;2023-07-20T07:54:36;100134.88;;;24.37;100.00
10881;BME280;5493;48.884;8.338;2023-07-20T07:57:03;100129.38;;;25.08;96.30
10881;BME280;5493;48.884;8.338;2023-07-20T07:59:30;100141.59;;;25.89;90.58
10881;BME280;5493;48.884;8.338;2023-07-20T08:02:01;100135.56;;;26.30;91.68
10881;BME280;5493;48.884;8.338;2023-07-20T08:04:28;100132.16;;;26.16;87.21
10881;BME280;5493;48.884;8.338;2023-07-20T08:06:56;100134.91;;;26.41;84.65
10881;BME280;5493;48.884;8.338;2023-07-20T08:09:22;100131.03;;;27.27;82.36
10881;BME280;5493;48.884;8.338;2023-07-20T08:11:50;100130.22;;;27.26;79.75
10881;BME280;5493;48.884;8.338;2023-07-20T08:14:16;100136.06;;;27.33;76.97
10881;BME280;5493;48.884;8.338;2023-07-20T08:16:44;100139.88;;;28.32;73.62
10881;BME280;5493;48.884;8.338;2023-07-20T08:19:11;100126.19;;;28.15;70.80
10881;BME280;5493;48.884;8.338;2023-07-20T08:21:37;100128.63;;;27.75;76.34
10881;BME280;5493;48.884;8.338;2023-07-20T08:24:06;100122.16;;;27.92;72.67
10881;BME280;5493;48.884;8.338;2023-07-20T08:26:32;100118.88;;;28.11;75.61
10881;BME280;5493;48.884;8.338;2023-07-20T08:28:59;100126.91;;;28.57;66.26
10881;BME280;5493;48.884;8.338;2023-07-20T08:31:25;100132.81;;;28.23;72.40
10881;BME280;5493;48.884;8.338;2023-07-20T08:33:53;100130.16;;;28.06;73.61
10881;BME280;5493;48.884;8.338;2023-07-20T08:36:22;100130.00;;;29.01;65.56
10881;BME280;5493;48.884;8.338;2023-07-20T08:38:48;100123.16;;;28.74;65.58
10881;BME280;5493;48.884;8.338;2023-07-20T08:41:16;100131.94;;;28.76;64.49
10881;BME280;5493;48.884;8.338;2023-07-20T08:43:44;100135.44;;;28.97;62.15
10881;BME280;5493;48.884;8.338;2023-07-20T08:46:12;100134.84;;;28.92;64.22
10881;BME280;5493;48.884;8.338;2023-07-20T08:48:40;100125.25;;;29.25;62.65
10881;BME280;5493;48.884;8.338;2023-07-20T08:51:09;100127.00;;;28.16;65.51
10881;BME280;5493;48.884;8.338;2023-07-20T08:53:38;100125.59;;;28.43;62.99
10881;BME280;5493;48.884;8.338;2023-07-20T08:56:05;100114.44;;;28.63;62.24
10881;BME280;5493;48.884;8.338;2023-07-20T08:58:35;100117.50;;;28.82;61.29
10881;BME280;5493;48.884;8.338;2023-07-20T09:01:02;100126.53;;;28.79;62.69
10881;BME280;5493;48.884;8.338;2023-07-20T09:03:29;100118.88;;;28.44;62.16
10881;BME280;5493;48.884;8.338;2023-07-20T09:05:57;100121.56;;;28.85;63.10
10881;BME280;5493;48.884;8.338;2023-07-20T09:08:24;100123.09;;;28.62;61.20
10881;BME280;5493;48.884;8.338;2023-07-20T09:10:50;100126.66;;;27.97;67.46
10881;BME280;5493;48.884;8.338;2023-07-20T09:13:17;100113.03;;;28.04;66.19
10881;BME280;5493;48.884;8.338;2023-07-20T09:15:53;100128.22;;;27.35;65.71
10881;BME280;5493;48.884;8.338;2023-07-20T09:18:27;100123.69;;;28.02;63.24
10881;BME280;5493;48.884;8.338;2023-07-20T09:20:58;100124.31;;;28.40;59.68
10881;BME280;5493;48.884;8.338;2023-07-20T09:23:30;100121.91;;;28.51;57.63
10881;BME280;5493;48.884;8.338;2023-07-20T09:25:57;100120.06;;;28.43;56.34
10881;BME280;5493;48.884;8.338;2023-07-20T09:28:24;100123.50;;;28.84;57.07
10881;BME280;5493;48.884;8.338;2023-07-20T09:30:54;100123.28;;;29.14;54.22
10881;BME280;5493;48.884;8.338;2023-07-20T09:33:21;100115.19;;;29.57;53.78
10881;BME280;5493;48.884;8.338;2023-07-20T09:35:48;100114.41;;;29.33;55.11
10881;BME280;5493;48.884;8.338;2023-07-20T09:38:15;100112.00;;;28.62;55.89
10881;BME280;5493;48.884;8.338;2023-07-20T09:40:42;100119.75;;;27.82;59.84
10881;BME280;5493;48.884;8.338;2023-07-20T09:43:09;100106.91;;;27.57;62.16
10881;BME280;5493;48.884;8.338;2023-07-20T09:45:40;100111.31;;;27.99;55.88
10881;BME280;5493;48.884;8.338;2023-07-20T09:48:10;100112.63;;;27.81;52.19
10881;BME280;5493;48.884;8.338;2023-07-20T09:50:40;100107.69;;;29.21;49.44
10881;BME280;5493;48.884;8.338;2023-07-20T09:53:11;100099.69;;;28.83;48.76
10881;BME280;5493;48.884;8.338;2023-07-20T09:55:38;100093.56;;;29.14;48.25
10881;BME280;5493;48.884;8.338;2023-07-20T09:58:06;100094.94;;;29.97;47.57
10881;BME280;5493;48.884;8.338;2023-07-20T10:00:36;100085.78;;;30.67;45.71
10881;BME280;5493;48.884;8.338;2023-07-20T10:03:04;100090.91;;;29.94;46.40
10881;BME280;5493;48.884;8.338;2023-07-20T10:05:33;100085.06;;;30.27;43.17
10881;BME280;5493;48.884;8.338;2023-07-20T10:08:02;100094.09;;;30.83;43.39
10881;BME280;5493;48.884;8.338;2023-07-20T10:10:31;100087.13;;;31.05;42.93
10881;BME280;5493;48.884;8.338;2023-07-20T10:13:00;100078.66;;;31.17;39.86
10881;BME280;5493;48.884;8.338;2023-07-20T10:15:30;100085.16;;;31.40;39.60
10881;BME280;5493;48.884;8.338;2023-07-20T10:18:02;100084.84;;;30.48;40.64
10881;BME280;5493;48.884;8.338;2023-07-20T10:20:33;100076.75;;;30.43;43.18
10881;BME280;5493;48.884;8.338;2023-07-20T10:23:02;100074.44;;;30.45;43.76
10881;BME280;5493;48.884;8.338;2023-07-20T10:25:29;100066.84;;;30.29;43.98
10881;BME280;5493;48.884;8.338;2023-07-20T10:27:56;100060.06;;;30.43;41.37
10881;BME280;5493;48.884;8.338;2023-07-20T10:30:24;100071.06;;;30.39;42.85
10881;BME280;5493;48.884;8.338;2023-07-20T10:32:52;100060.88;;;31.21;41.80
10881;BME280;5493;48.884;8.338;2023-07-20T10:35:19;100052.63;;;30.78;39.97
10881;BME280;5493;48.884;8.338;2023-07-20T10:37:52;100053.31;;;30.91;38.82
10881;BME280;5493;48.884;8.338;2023-07-20T10:40:32;100049.72;;;31.21;39.51
10881;BME280;5493;48.884;8.338;2023-07-20T10:43:01;100052.44;;;31.37;37.26
10881;BME280;5493;48.884;8.338;2023-07-20T10:45:36;100055.31;;;31.76;37.62
10881;BME280;5493;48.884;8.338;2023-07-20T10:48:04;100049.75;;;30.74;39.56
10881;BME280;5493;48.884;8.338;2023-07-20T10:50:32;100052.34;;;30.83;40.05
10881;BME280;5493;48.884;8.338;2023-07-20T10:53:10;100047.25;;;30.69;38.03
10881;BME280;5493;48.884;8.338;2023-07-20T10:55:37;100045.72;;;31.03;37.34
10881;BME280;5493;48.884;8.338;2023-07-20T10:58:08;100043.09;;;30.95;38.75
10881;BME280;5493;48.884;8.338;2023-07-20T11:00:35;100043.50;;;31.28;37.73
10881;BME280;5493;48.884;8.338;2023-07-20T11:03:02;100040.41;;;31.33;39.06
10881;BME280;5493;48.884;8.338;2023-07-20T11:05:33;100042.22;;;32.18;38.01
10881;BME280;5493;48.884;8.338;2023-07-20T11:07:59;100042.94;;;31.96;40.09
10881;BME280;5493;48.884;8.338;2023-07-20T11:10:27;100033.63;;;31.15;37.86
10881;BME280;5493;48.884;8.338;2023-07-20T11:13:16;100038.84;;;29.03;39.61
10881;BME280;5493;48.884;8.338;2023-07-20T11:15:46;100030.66;;;31.23;38.07
10881;BME280;5493;48.884;8.338;2023-07-20T11:18:13;100022.78;;;31.10;36.86
10881;BME280;5493;48.884;8.338;2023-07-20T11:20:40;100028.03;;;31.31;37.60
10881;BME280;5493;48.884;8.338;2023-07-20T11:23:08;100030.34;;;30.03;38.39
10881;BME280;5493;48.884;8.338;2023-07-20T11:25:40;100031.41;;;29.71;38.34
10881;BME280;5493;48.884;8.338;2023-07-20T11:28:07;100026.19;;;29.42;38.86
10881;BME280;5493;48.884;8.338;2023-07-20T11:30:36;100020.91;;;29.64;38.31
10881;BME280;5493;48.884;8.338;2023-07-20T11:33:03;100011.09;;;29.55;37.75
10881;BME280;5493;48.884;8.338;2023-07-20T11:35:30;100011.81;;;29.79;36.80
10881;BME280;5493;48.884;8.338;2023-07-20T11:37:56;100003.09;;;30.24;37.06
10881;BME280;5493;48.884;8.338;2023-07-20T11:40:23;100014.69;;;30.11;37.20
10881;BME280;5493;48.884;8.338;2023-07-20T11:42:51;99995.59;;;30.09;34.93
10881;BME280;5493;48.884;8.338;2023-07-20T11:45:19;99997.13;;;30.69;35.58
10881;BME280;5493;48.884;8.338;2023-07-20T11:47:46;99998.44;;;30.91;33.86
10881;BME280;5493;48.884;8.338;2023-07-20T11:50:12;99992.53;;;30.77;33.58
10881;BME280;5493;48.884;8.338;2023-07-20T11:52:39;99993.34;;;30.15;32.99
10881;BME280;5493;48.884;8.338;2023-07-20T11:55:07;99990.56;;;30.15;33.03
10881;BME280;5493;48.884;8.338;2023-07-20T11:57:34;99996.09;;;29.99;33.75
10881;BME280;5493;48.884;8.338;2023-07-20T12:00:03;99993.16;;;30.08;33.41
10881;BME280;5493;48.884;8.338;2023-07-20T12:02:34;99986.22;;;29.46;34.57
10881;BME280;5493;48.884;8.338;2023-07-20T12:05:02;99979.22;;;29.24;35.29
10881;BME280;5493;48.884;8.338;2023-07-20T12:07:35;99980.41;;;29.91;35.02
10881;BME280;5493;48.884;8.338;2023-07-20T12:10:06;99986.69;;;30.35;33.33
10881;BME280;5493;48.884;8.338;2023-07-20T12:12:32;99979.59;;;30.85;32.44
10881;BME280;5493;48.884;8.338;2023-07-20T12:15:16;99968.84;;;31.18;31.47
10881;BME280;5493;48.884;8.338;2023-07-20T12:17:43;99978.88;;;31.03;30.67
10881;BME280;5493;48.884;8.338;2023-07-20T12:20:11;99972.28;;;31.31;32.08
10881;BME280;5493;48.884;8.338;2023-07-20T12:22:41;99970.91;;;31.21;32.09
10881;BME280;5493;48.884;8.338;2023-07-20T12:25:09;99967.97;;;31.14;31.30
10881;BME280;5493;48.884;8.338;2023-07-20T12:27:36;99962.06;;;31.96;32.16
10881;BME280;5493;48.884;8.338;2023-07-20T12:30:05;99962.09;;;31.77;28.46
10881;BME280;5493;48.884;8.338;2023-07-20T12:32:33;99971.41;;;31.07;27.02
10881;BME280;5493;48.884;8.338;2023-07-20T12:35:00;99962.41;;;31.71;27.00
10881;BME280;5493;48.884;8.338;2023-07-20T12:37:26;99966.66;;;31.65;28.12
10881;BME280;5493;48.884;8.338;2023-07-20T12:39:53;99963.34;;;31.41;27.31
10881;BME280;5493;48.884;8.338;2023-07-20T12:42:19;99953.53;;;31.47;25.86
10881;BME280;5493;48.884;8.338;2023-07-20T12:44:48;99947.91;;;31.85;27.13
10881;BME280;5493;48.884;8.338;2023-07-20T12:47:16;99951.69;;;32.15;27.38
10881;BME280;5493;48.884;8.338;2023-07-20T12:49:44;99946.16;;;31.77;26.83
10881;BME280;5493;48.884;8.338;2023-07-20T12:52:11;99946.25;;;31.42;27.15
10881;BME280;5493;48.884;8.338;2023-07-20T12:54:38;99942.13;;;31.94;26.75
10881;BME280;5493;48.884;8.338;2023-07-20T12:57:05;99942.94;;;32.62;28.01
10881;BME280;5493;48.884;8.338;2023-07-20T12:59:32;99933.88;;;32.24;26.46
10881;BME280;5493;48.884;8.338;2023-07-20T13:02:00;99940.84;;;31.68;26.71
10881;BME280;5493;48.884;8.338;2023-07-20T13:04:27;99940.88;;;32.37;26.78